Flight Track Log - Related Links

Times and Time Zones

All times are in EDT time to prevent confusion due to time zone crossing. See the SWA268 flight status page for this flight to view local times or setup timezone preferences in your user account.

Time Position Orientation Groundspeed Altitude Reporting Facility
EDT Latitude Longitude Course Direction KTS MPH feet Rate Location/Type
Tue 01:58:11 PM 36.1344 -115.0736 62° Northeast 225 259 5,500  Level Los Angeles Center
Tue 01:59:01 PM 36.1408 -114.9897 85° East 271 312 8,400 3,387 Climbing Los Angeles Center
Tue 02:00:15 PM 36.1458 -114.8836 87° East 286 329 12,500 3,397 Climbing Los Angeles Center
Tue 02:01:17 PM 36.1011 -114.7578 114° Southeast 330 380 16,100 2,903 Climbing Los Angeles Center
Tue 02:02:19 PM 36.0597 -114.6403 114° Southeast 370 426 18,500 2,806 Climbing Los Angeles Center
Tue 02:03:21 PM 36.0178 -114.5133 112° Southeast 391 450 21,900 2,516 Climbing Los Angeles Center
Tue 02:04:23 PM 35.9919 -114.3822 104° East 394 453 23,700 2,032 Climbing Los Angeles Center
Tue 02:05:25 PM 35.9739 -114.2436 99° East 401 461 26,100 2,274 Climbing Los Angeles Center
Tue 02:06:27 PM 35.9533 -114.1019 100° East 414 476 28,400 2,081 Climbing Los Angeles Center
Tue 02:07:29 PM 35.9269 -113.9269 100° East 429 494 30,400 1,872 Climbing Los Angeles Center
Tue 02:08:32 PM 35.9039 -113.7778 101° East 438 504 32,300 1,248 Climbing Los Angeles Center
Tue 02:09:34 PM 35.8761 -113.6239 103° East 452 520 33,000 968 Climbing Los Angeles Center
Tue 02:10:36 PM 35.8178 -113.4800 117° Southeast 488 562 34,300 1,452 Climbing Los Angeles Center
Tue 02:11:38 PM 35.7636 -113.3294 114° Southeast 485 558 36,000 1,548 Climbing Los Angeles Center
Tue 02:12:40 PM 35.7442 -113.1386 97° East 471 542 37,500 1,210 Climbing Los Angeles Center
Tue 02:13:42 PM 35.7375 -112.9792 93° East 467 537 38,500 726 Climbing Los Angeles Center
Tue 02:14:44 PM 35.7300 -112.8181 93° East 467 537 39,000 242 Climbing Los Angeles Center
Tue 02:15:46 PM 35.7225 -112.6558 93° East 472 543 39,000  Level Los Angeles Center
Tue 02:16:48 PM 35.7142 -112.4928 94° East 476 548 39,000  Level Los Angeles Center
Tue 02:17:51 PM 35.7058 -112.3283 94° East 480 552 39,000  Level Los Angeles Center
Tue 02:18:53 PM 35.6969 -112.1636 94° East 483 556 39,000  Level Los Angeles Center
Tue 02:19:55 PM 35.6858 -111.9661 94° East 484 557 39,000  Level Los Angeles Center
Tue 02:20:57 PM 35.6758 -111.8031 94° East 480 552 39,000  Level Los Angeles Center
Tue 02:21:59 PM 35.6675 -111.6414 94° East 478 550 39,000  Level Los Angeles Center
Tue 02:23:01 PM 35.6567 -111.4547 94° East 478 550 39,000  Level Los Angeles Center
Tue 02:23:56 PM 35.6481 -111.3058 94° East 479 551 39,000  Level Albuquerque Center
Tue 02:24:58 PM 35.6392 -111.1500 94° East 478 550 39,000  Level Albuquerque Center
Tue 02:25:59 PM 35.6264 -110.9686 95° East 478 550 39,000  Level Albuquerque Center
Tue 02:27:01 PM 35.6161 -110.8139 95° East 476 548 39,000  Level Albuquerque Center
Tue 02:28:03 PM 35.6058 -110.6592 95° East 475 547 39,000  Level Albuquerque Center
Tue 02:29:04 PM 35.5936 -110.4781 95° East 477 549 39,000  Level Albuquerque Center
Tue 02:30:06 PM 35.5842 -110.3247 94° East 474 545 39,000  Level Albuquerque Center
Tue 02:31:08 PM 35.5708 -110.1428 95° East 478 550 39,000  Level Albuquerque Center
Tue 02:32:10 PM 35.5614 -109.9878 94° East 478 550 39,000 -293 Level Albuquerque Center
Tue 02:33:11 PM 35.5483 -109.8056 95° East 480 552 38,400 -732 Descending Albuquerque Center
Tue 02:34:13 PM 35.5369 -109.6483 95° East 483 556 37,500 -968 Descending Albuquerque Center
Tue 02:35:15 PM 35.5236 -109.4636 95° East 487 560 36,400 -732 Descending Albuquerque Center
Tue 02:36:16 PM 35.5103 -109.3056 96° East 488 562 36,000 -195 Descending Albuquerque Center
Tue 02:37:18 PM 35.4983 -109.1492 95° East 485 558 36,000  Level Albuquerque Center
Tue 02:38:20 PM 35.4847 -108.9678 95° East 482 555 36,000  Level Albuquerque Center
Tue 02:39:22 PM 35.4789 -108.8114 93° East 483 556 36,000  Level Albuquerque Center
Tue 02:40:23 PM 35.4822 -108.6283 89° East 484 557 36,000 -341 Level Albuquerque Center
Tue 02:41:25 PM 35.4853 -108.4717 89° East 484 557 35,300 -2,032 Descending Albuquerque Center
Tue 02:42:27 PM 35.4856 -108.2867 90° East 486 559 31,800 -2,829 Descending Albuquerque Center
Tue 02:43:28 PM 35.4742 -108.1356 95° East 476 548 29,500 -2,293 Descending Albuquerque Center
Tue 02:44:30 PM 35.4631 -107.9761 95° East 435 501 27,100 -1,887 Descending Albuquerque Center
Tue 02:45:32 PM 35.4564 -107.8528 94° East 397 457 25,600 -1,742 Descending Albuquerque Center
Tue 02:46:34 PM 35.4464 -107.7131 95° East 380 437 23,500 -1,839 Descending Albuquerque Center
Tue 02:47:36 PM 35.4375 -107.5947 95° East 371 427 21,800 -1,659 Descending Albuquerque Center
Tue 02:48:37 PM 35.4311 -107.4775 94° East 364 419 20,100 -1,898 Descending Albuquerque Center
Tue 02:49:14 PM 35.4225 -107.3869 97° East 351 404 18,700 -2,129 Descending Albuquerque Center
Tue 02:49:39 PM 35.4175 -107.3453 98° East 351 404 17,900 -1,964 Descending Albuquerque Center
Tue 02:50:09 PM 35.3856 -107.2922 126° Southeast 340 391 16,900 -1,355 Descending Albuquerque Center
Tue 02:50:41 PM 35.3664 -107.2528 121° Southeast 341 392 16,500 -1,200 Descending Albuquerque Center
Tue 02:51:09 PM 35.3375 -107.1975 123° Southeast 328 377 15,700 -1,475 Descending Albuquerque Center
Tue 02:51:42 PM 35.3133 -107.1489 121° Southeast 322 371 15,000 -590 Descending Albuquerque Center
Tue 02:52:10 PM 35.2894 -107.1031 123° Southeast 319 367 15,100 97 Climbing Albuquerque Center
Tue 02:52:44 PM 35.2747 -107.0561 111° Southeast 321 369 15,100  Level Albuquerque Center
Tue 02:53:11 PM 35.2614 -107.0011 107° East 328 377 15,100 -1,645 Level Albuquerque Center
Tue 02:53:46 PM 35.2444 -106.9375 108° East 326 375 13,400 -3,000 Descending Albuquerque Center
Tue 02:54:11 PM 35.2322 -106.8917 108° East 341 392 12,100 -2,754 Descending Albuquerque Center
Tue 02:54:47 PM 35.2125 -106.8217 109° East 349 402 10,600 -1,770 Descending Albuquerque Center
Tue 02:55:12 PM 35.2006 -106.7828 111° Southeast 350 403 10,300 -1,065 Descending Albuquerque Center
Tue 02:55:49 PM 35.1847 -106.7211 107° East 314 361 9,500 -1,200 Descending Albuquerque Center
Tue 02:56:12 PM 35.1731 -106.6861 112° Southeast 286 329 9,100 -1,065 Descending Albuquerque Center
Tue 02:56:51 PM 35.1472 -106.6350 122° Southeast 287 330 8,400 -1,082 Descending Albuquerque Center
Tue 02:57:13 PM 35.1286 -106.6144 138° Southeast 258 297 8,000 -1,180 Descending Albuquerque Center
Tue 02:57:52 PM 35.0825 -106.6008 166° South 248 285 7,200 -885 Descending Albuquerque Center
Tue 02:58:14 PM 35.0694 -106.5803 128° Southeast 238 274 7,100 -484 Descending Albuquerque Center
Tue 02:58:54 PM 35.0642 -106.5317 98° East 217 250 6,700 -700 Descending Albuquerque Center
Tue 02:59:14 PM 35.0511 -106.5253 158° South 174 200 6,400 -871 Descending Albuquerque Center
Tue 02:59:56 PM 35.0436 -106.5522 251° West 144 166 5,800 -787 Descending Albuquerque Center
Tue 03:00:15 PM 35.0439 -106.5689 271° West 113 130 5,600 -484 Descending Albuquerque Center
Tue 03:00:58 PM 35.0433 -106.5931 268° West 130 150 5,300 -419 Descending Albuquerque Center
Tue 03:02:00 PM 35.0333 -106.6000 90° East  Level FlightAware Approximate

Login

Don't have an account? Register now (free) for customized features, flight alerts, and more!